Time;durP1;ratioP1;P1;durP2;ratioP2;P2;SDS_P1;SDS_P2;PMS_P1;PMS_P2;Temp;Humidity;BMP_temperature;BMP_pressure;BME280_temperature;BME280_humidity;BME280_pressure;Samples;Min_cycle;Max_cycle;Signal;HPM_P1;HPM_P2
2021/11/22 00:00:09;;;;;;;1058.65;973.63;;;;;;;20.36;44.97;101949.53;5052426;28;20021;-36
2021/11/22 00:02:35;;;;;;;1095.07;997.25;;;;;;;20.21;44.25;101941.81;5052784;28;20445;-36
2021/11/22 00:05:02;;;;;;;1084.65;992.33;;;;;;;20.17;43.32;101947.53;5053843;28;20017;-36
2021/11/22 00:07:28;;;;;;;1018.05;940.42;;;;;;;20.32;42.89;101954.25;5049060;28;20380;-36
2021/11/22 00:09:54;;;;;;;1030.22;948.42;;;;;;;20.36;44.24;101952.19;5050477;28;20021;-38
2021/11/22 00:12:20;;;;;;;1098.93;999.03;;;;;;;20.24;45.87;101949.56;5055791;28;20366;-36
2021/11/22 00:14:47;;;;;;;985.75;912.40;;;;;;;20.21;45.99;101951.63;5055262;28;20053;-36
2021/11/22 00:17:13;;;;;;;1083.57;992.85;;;;;;;20.26;46.36;101955.63;5054911;28;20021;-36
2021/11/22 00:19:39;;;;;;;1042.13;959.28;;;;;;;20.22;46.33;101958.69;5054142;28;20128;-35
2021/11/22 00:22:07;;;;;;;1046.43;964.15;;;;;;;20.08;47.26;101947.28;5036362;28;20035;-36
2021/11/22 00:24:33;;;;;;;1028.80;949.03;;;;;;;20.16;46.55;101957.34;5056744;28;20036;-39
2021/11/22 00:26:59;;;;;;;1041.15;959.38;;;;;;;20.16;46.53;101961.81;5054444;28;20021;-38
2021/11/22 00:29:25;;;;;;;1080.07;990.33;;;;;;;20.10;46.67;101965.84;5054328;28;20039;-38
2021/11/22 00:31:53;;;;;;;1026.55;948.30;;;;;;;20.02;46.75;101960.28;5055120;28;20020;-38
2021/11/22 00:34:19;;;;;;;1073.20;986.30;;;;;;;19.97;47.17;101960.66;5052500;28;20037;-39
2021/11/22 00:36:46;;;;;;;1082.72;993.63;;;;;;;19.88;46.71;101969.38;5051862;28;20075;-40
2021/11/22 00:39:13;;;;;;;1086.40;994.28;;;;;;;19.86;46.94;101944.66;5055591;28;20078;-39
2021/11/22 00:41:39;;;;;;;1052.72;963.15;;;;;;;19.80;47.02;101954.00;5055452;28;20339;-39
2021/11/22 00:44:05;;;;;;;1083.43;993.25;;;;;;;19.68;47.35;101953.09;5071251;28;20043;-39
2021/11/22 00:46:31;;;;;;;1075.40;987.20;;;;;;;19.72;46.69;101964.41;5055566;28;20037;-38
2021/11/22 00:48:57;;;;;;;1091.45;996.65;;;;;;;19.46;46.88;101929.97;5055432;28;20029;-38
2021/11/22 00:51:23;;;;;;;1053.65;969.17;;;;;;;19.53;47.09;101946.34;5054121;28;20108;-38
2021/11/22 00:53:50;;;;;;;1062.28;978.65;;;;;;;19.46;47.63;101964.63;5037966;28;20037;-39
2021/11/22 00:56:17;;;;;;;1022.72;941.35;;;;;;;19.43;48.12;101964.00;5055674;28;20048;-39
2021/11/22 00:58:44;;;;;;;1078.75;981.05;;;;;;;19.31;47.78;101956.00;5055210;28;20053;-38
2021/11/22 01:01:10;;;;;;;1303.38;998.85;;;;;;;19.15;48.06;101943.03;5055395;28;20040;-37
2021/11/22 01:03:37;;;;;;;1072.55;984.95;;;;;;;19.32;47.94;101952.38;5055002;28;20107;-36
2021/11/22 01:06:03;;;;;;;1056.82;972.47;;;;;;;19.24;47.84;101954.78;5054383;28;20025;-37
2021/11/22 01:08:29;;;;;;;1033.32;953.80;;;;;;;19.14;47.72;101956.47;5054450;28;20040;-36
2021/11/22 01:10:55;;;;;;;1049.60;968.13;;;;;;;19.03;47.56;101927.13;5054383;28;20029;-35
2021/11/22 01:13:21;;;;;;;971.47;899.13;;;;;;;19.12;47.34;101958.41;5032463;28;20029;-37
2021/11/22 01:15:48;;;;;;;960.20;890.78;;;;;;;18.99;47.99;101954.00;5054654;28;20024;-38
2021/11/22 01:18:14;;;;;;;1046.93;965.22;;;;;;;18.83;48.03;101940.13;5054480;28;20025;-36
2021/11/22 01:20:41;;;;;;;990.55;904.65;;;;;;;18.86;48.24;101963.03;5037178;28;20060;-38
2021/11/22 01:23:10;;;;;;;1053.38;969.33;;;;;;;18.87;48.11;101956.75;5054577;28;20029;-36
2021/11/22 01:25:37;;;;;;;1021.67;943.10;;;;;;;18.67;48.16;101950.22;5054176;28;20017;-38
2021/11/22 01:28:03;;;;;;;1034.55;957.08;;;;;;;18.61;48.86;101964.81;5036884;28;20029;-36
2021/11/22 01:30:29;;;;;;;944.13;876.03;;;;;;;18.74;47.94;101968.28;5055249;28;20028;-37
2021/11/22 01:32:55;;;;;;;1032.18;953.22;;;;;;;18.61;48.46;101971.00;5053823;28;20102;-39
2021/11/22 01:35:22;;;;;;;980.90;909.75;;;;;;;18.62;48.25;101972.69;5049863;28;20143;-38
2021/11/22 01:37:48;;;;;;;1000.47;925.75;;;;;;;18.51;48.12;101970.00;5048798;28;20037;-39
2021/11/22 01:40:17;;;;;;;989.05;916.03;;;;;;;18.49;48.11;101974.56;5053498;28;20358;-38
2021/11/22 01:42:43;;;;;;;964.25;887.42;;;;;;;18.62;47.71;101971.84;5053097;28;20024;-36
2021/11/22 01:45:11;;;;;;;909.08;843.13;;;;;;;18.45;48.22;101975.75;5054415;28;20109;-36
2021/11/22 01:47:37;;;;;;;974.97;904.45;;;;;;;18.38;48.31;101967.38;5053991;28;20083;-36
2021/11/22 01:50:04;;;;;;;890.75;829.10;;;;;;;18.37;48.31;101975.44;5049011;28;20569;-36
2021/11/22 01:52:30;;;;;;;1434.57;925.83;;;;;;;18.07;48.37;101934.19;5054685;28;20112;-36
2021/11/22 01:54:57;;;;;;;1037.28;931.00;;;;;;;18.33;48.81;101977.47;5053058;28;20116;-39
2021/11/22 01:57:23;;;;;;;992.80;918.47;;;;;;;18.57;48.01;101974.00;5044914;28;20348;-35
2021/11/22 01:59:49;;;;;;;946.90;881.40;;;;;;;18.63;47.95;101976.19;5049593;28;20071;-40
2021/11/22 02:02:15;;;;;;;906.42;846.00;;;;;;;18.76;47.71;101984.97;5035402;28;20071;-41
2021/11/22 02:04:42;;;;;;;935.30;870.50;;;;;;;18.88;47.31;101975.25;5048318;28;20020;-40
2021/11/22 02:07:08;;;;;;;927.03;864.13;;;;;;;18.99;47.24;101982.41;5051059;28;20028;-40
2021/11/22 02:09:34;;;;;;;919.58;857.53;;;;;;;18.95;47.36;101983.63;5047112;28;20028;-40
2021/11/22 02:12:00;;;;;;;933.92;869.67;;;;;;;18.98;47.43;101988.72;5051353;28;20025;-40
2021/11/22 02:14:27;;;;;;;936.40;872.22;;;;;;;18.97;47.42;101987.88;5049503;28;20484;-39
2021/11/22 02:16:53;;;;;;;966.28;896.67;;;;;;;18.96;47.61;101982.66;5049414;28;20087;-39
2021/11/22 02:19:20;;;;;;;942.38;876.67;;;;;;;18.92;47.83;101991.84;5051918;28;20032;-39
2021/11/22 02:21:46;;;;;;;909.05;848.60;;;;;;;18.87;47.95;101989.53;5056661;28;20056;-39
2021/11/22 02:24:13;;;;;;;933.75;868.03;;;;;;;18.87;47.94;101994.84;5059225;28;20441;-39
2021/11/22 02:26:39;;;;;;;972.03;903.47;;;;;;;18.87;48.23;101994.84;5049992;28;20115;-39
2021/11/22 02:29:05;;;;;;;961.78;894.25;;;;;;;18.94;47.88;101992.59;5052836;28;20029;-39
2021/11/22 02:31:32;;;;;;;957.35;891.55;;;;;;;18.90;48.12;102002.63;5054127;28;20021;-39
2021/11/22 02:33:58;;;;;;;967.92;900.15;;;;;;;18.91;48.00;102000.81;5049097;28;20470;-39
2021/11/22 02:36:24;;;;;;;934.35;870.33;;;;;;;18.84;48.29;102005.72;5050061;28;20040;-39
2021/11/22 02:38:51;;;;;;;981.78;904.95;;;;;;;18.86;48.49;101997.63;5053424;28;20041;-39
2021/11/22 02:41:17;;;;;;;959.10;892.60;;;;;;;18.89;48.50;101994.75;5051167;28;20057;-40
2021/11/22 02:43:44;;;;;;;955.20;887.60;;;;;;;18.90;48.30;102001.75;5046705;28;20029;-39
2021/11/22 02:46:11;;;;;;;929.35;865.90;;;;;;;18.88;48.47;101999.19;5052132;28;20048;-39
2021/11/22 02:48:37;;;;;;;940.30;874.88;;;;;;;18.84;48.54;101986.25;5066513;28;20516;-39
2021/11/22 02:51:05;;;;;;;927.97;864.40;;;;;;;18.89;48.66;101997.41;5070950;28;20458;-40
2021/11/22 02:53:32;;;;;;;998.38;924.97;;;;;;;18.80;48.30;101994.44;5050413;28;20021;-39
2021/11/22 02:56:03;;;;;;;1006.92;931.58;;;;;;;18.62;48.19;102004.63;5044389;28;20348;-39
2021/11/22 02:58:30;;;;;;;933.28;866.78;;;;;;;18.63;48.44;102002.81;5050828;28;20171;-39
2021/11/22 03:00:57;;;;;;;938.67;872.38;;;;;;;18.68;48.47;102005.13;5051841;28;20047;-39
2021/11/22 03:03:30;;;;;;;900.15;839.92;;;;;;;18.68;48.52;102005.97;5054145;28;20056;-39
2021/11/22 03:06:11;;;;;;;959.13;890.97;;;;;;;18.69;48.43;101985.53;5048958;28;20014;-39
2021/11/22 03:08:38;;;;;;;914.08;852.08;;;;;;;18.78;48.16;101998.19;5049685;28;20017;-39
2021/11/22 03:11:04;;;;;;;936.45;872.17;;;;;;;18.74;48.30;101994.91;5064588;28;20024;-40
2021/11/22 03:13:31;;;;;;;965.25;897.90;;;;;;;18.82;48.37;101998.84;5063930;28;20102;-39
2021/11/22 03:15:57;;;;;;;897.45;837.15;;;;;;;18.84;48.45;102005.72;5050386;28;20071;-39
2021/11/22 03:18:23;;;;;;;927.28;864.42;;;;;;;18.85;48.33;101999.44;5053129;28;20033;-39
2021/11/22 03:20:49;;;;;;;893.42;834.25;;;;;;;18.81;48.28;102003.25;5050788;28;20033;-39
2021/11/22 03:23:15;;;;;;;957.30;891.65;;;;;;;18.77;48.53;101997.31;5038452;28;20459;-39
2021/11/22 03:25:41;;;;;;;953.22;887.58;;;;;;;18.80;48.60;102001.56;5042344;28;20042;-39
2021/11/22 03:28:08;;;;;;;905.58;844.70;;;;;;;18.86;48.53;102006.47;5052077;28;20108;-39
2021/11/22 03:30:34;;;;;;;920.03;856.72;;;;;;;18.85;48.49;102010.09;5051918;28;20029;-40
2021/11/22 03:33:00;;;;;;;942.30;877.95;;;;;;;18.87;48.29;102008.16;5050264;28;20336;-39
2021/11/22 03:35:27;;;;;;;915.20;853.28;;;;;;;18.91;48.58;102017.59;5048949;28;20362;-39
2021/11/22 03:37:53;;;;;;;980.55;894.08;;;;;;;18.75;48.80;102007.22;5050500;28;20016;-39
2021/11/22 03:40:20;;;;;;;937.40;873.67;;;;;;;18.82;48.25;102012.97;5047035;28;20036;-39
2021/11/22 03:43:11;;;;;;;922.03;859.67;;;;;;;18.82;48.31;102020.97;5044581;28;20455;-39
2021/11/22 03:45:39;;;;;;;917.43;855.73;;;;;;;18.80;48.51;102010.41;5049068;28;20399;-39
2021/11/22 03:48:05;;;;;;;918.13;856.70;;;;;;;18.80;48.86;102017.53;5056658;28;20032;-39
2021/11/22 03:50:32;;;;;;;886.22;826.45;;;;;;;18.84;48.62;102016.38;5049008;28;20111;-39
2021/11/22 03:52:58;;;;;;;936.40;871.53;;;;;;;18.85;48.42;102025.19;5055859;28;20025;-40
2021/11/22 03:55:25;;;;;;;939.20;875.33;;;;;;;18.83;48.47;102013.81;5057184;28;20084;-39
2021/11/22 03:57:52;;;;;;;952.63;886.45;;;;;;;18.84;48.70;102016.38;5056906;28;20032;-40
2021/11/22 04:00:18;;;;;;;897.33;837.70;;;;;;;18.84;48.50;102019.03;5048658;28;20075;-39
2021/11/22 04:02:44;;;;;;;915.92;854.38;;;;;;;18.86;48.48;102019.75;5056705;28;20090;-39
2021/11/22 04:05:10;;;;;;;891.20;831.72;;;;;;;18.88;48.27;102028.47;5052591;28;20025;-39
2021/11/22 04:07:36;;;;;;;893.20;833.60;;;;;;;18.88;48.35;102022.31;5051255;28;20442;-39
2021/11/22 04:10:04;;;;;;;939.60;875.80;;;;;;;18.88;48.37;102028.47;5049663;28;20033;-39
2021/11/22 04:12:30;;;;;;;924.70;861.03;;;;;;;18.88;48.40;102022.31;5053373;28;20063;-39
2021/11/22 04:14:56;;;;;;;936.10;871.40;;;;;;;18.83;48.52;102030.63;5052725;28;20360;-40
2021/11/22 04:17:22;;;;;;;939.67;873.95;;;;;;;18.85;48.73;102033.19;5052253;28;20044;-39
2021/11/22 04:19:49;;;;;;;919.97;858.97;;;;;;;18.85;48.53;102034.06;5056747;28;20029;-40
2021/11/22 04:22:15;;;;;;;927.45;865.47;;;;;;;18.85;48.50;102035.84;5057864;28;20087;-40
2021/11/22 04:24:41;;;;;;;960.10;893.45;;;;;;;18.83;48.49;102041.28;5068734;28;20056;-40
2021/11/22 04:27:10;;;;;;;915.20;853.25;;;;;;;18.82;48.49;102050.25;5055686;28;20084;-39
2021/11/22 04:29:36;;;;;;;890.28;830.83;;;;;;;18.84;48.42;102042.97;5056684;28;20028;-40
2021/11/22 04:32:03;;;;;;;922.63;860.53;;;;;;;18.87;48.59;102037.44;5049001;28;20082;-39
2021/11/22 04:34:29;;;;;;;921.42;859.10;;;;;;;18.87;48.29;102040.09;5056958;28;20078;-39
2021/11/22 04:36:55;;;;;;;884.55;825.55;;;;;;;18.78;48.38;102030.13;5056829;28;20025;-40
2021/11/22 04:39:21;;;;;;;926.47;862.70;;;;;;;18.87;48.56;102055.22;5055113;28;20033;-40
2021/11/22 04:41:47;;;;;;;937.10;873.53;;;;;;;18.84;48.72;102050.97;5056527;28;20017;-39
2021/11/22 04:44:13;;;;;;;944.05;879.00;;;;;;;18.83;48.53;102049.25;5056448;28;20024;-40
2021/11/22 04:46:40;;;;;;;930.22;867.10;;;;;;;18.83;48.61;102056.41;5053217;28;20040;-40
2021/11/22 04:49:06;;;;;;;922.03;859.17;;;;;;;18.82;48.57;102044.91;5055729;28;20463;-39
2021/11/22 04:51:32;;;;;;;932.35;868.60;;;;;;;18.58;48.50;102023.56;5049872;28;20104;-40
2021/11/22 04:53:58;;;;;;;926.63;863.50;;;;;;;18.79;48.72;102063.72;5070357;28;20021;-40
2021/11/22 04:56:25;;;;;;;911.42;849.35;;;;;;;18.78;48.61;102062.88;5054726;28;20056;-40
2021/11/22 04:58:51;;;;;;;919.30;857.05;;;;;;;18.79;48.67;102061.06;5054433;28;20083;-40
2021/11/22 05:01:17;;;;;;;907.22;845.92;;;;;;;18.81;48.23;102056.47;5035933;28;20025;-40
2021/11/22 05:03:43;;;;;;;890.92;831.80;;;;;;;18.82;48.19;102050.25;5044118;28;20044;-39
2021/11/22 05:06:09;;;;;;;890.92;832.28;;;;;;;18.84;48.42;102066.94;5044258;28;20458;-39
2021/11/22 05:08:35;;;;;;;919.33;857.22;;;;;;;18.83;48.36;102069.72;5054537;28;20039;-39
2021/11/22 05:11:02;;;;;;;928.20;864.08;;;;;;;18.82;48.68;102065.38;5053510;28;20044;-39
2021/11/22 05:13:28;;;;;;;916.47;853.78;;;;;;;18.78;48.49;102070.03;5053660;28;20056;-39
2021/11/22 05:15:54;;;;;;;931.17;867.97;;;;;;;18.60;48.48;102042.94;5055033;28;20021;-40
2021/11/22 05:18:20;;;;;;;921.97;859.70;;;;;;;18.77;48.50;102074.47;5071174;28;20064;-40
2021/11/22 05:20:46;;;;;;;919.88;857.13;;;;;;;18.73;48.16;102069.53;5055392;28;20100;-39
2021/11/22 05:23:13;;;;;;;918.50;856.13;;;;;;;18.76;48.57;102078.13;5036712;28;20039;-39
2021/11/22 05:25:39;;;;;;;917.67;855.88;;;;;;;18.74;48.41;102071.19;5055112;28;20460;-39
2021/11/22 05:28:05;;;;;;;915.45;853.30;;;;;;;18.74;48.29;102080.06;5052939;28;20086;-39
2021/11/22 05:30:32;;;;;;;896.22;836.10;;;;;;;18.76;48.42;102082.56;5055795;28;20075;-40
2021/11/22 05:33:00;;;;;;;905.60;845.17;;;;;;;18.76;48.27;102080.78;5055705;28;20033;-40
2021/11/22 05:35:26;;;;;;;920.80;857.92;;;;;;;18.77;48.09;102078.97;5071267;28;20028;-40
2021/11/22 05:37:53;;;;;;;917.58;855.67;;;;;;;18.74;48.53;102071.19;5053735;28;20112;-40
2021/11/22 05:40:19;;;;;;;924.28;862.00;;;;;;;18.76;48.53;102070.16;5055451;28;20039;-40
2021/11/22 05:42:45;;;;;;;920.17;857.22;;;;;;;18.75;48.23;102067.59;5059045;28;20032;-39
2021/11/22 05:45:11;;;;;;;925.30;862.95;;;;;;;18.72;48.47;102073.13;5044572;28;20039;-39
2021/11/22 05:47:37;;;;;;;924.80;862.05;;;;;;;18.71;48.30;102079.44;5053429;28;20025;-40
2021/11/22 05:50:06;;;;;;;917.78;856.90;;;;;;;18.66;48.43;102066.44;5045155;28;20017;-40
2021/11/22 05:52:34;;;;;;;944.33;879.47;;;;;;;18.68;48.19;102066.34;5051624;28;20022;-39
2021/11/22 05:55:01;;;;;;;905.65;845.25;;;;;;;18.67;48.29;102076.16;5046140;28;20030;-40
2021/11/22 05:57:28;;;;;;;911.70;850.83;;;;;;;18.69;48.46;102076.00;5046061;28;20681;-40
2021/11/22 05:59:54;;;;;;;952.67;888.17;;;;;;;18.70;48.14;102080.38;5043616;28;20025;-39
2021/11/22 06:02:20;;;;;;;928.75;865.72;;;;;;;18.72;48.25;102078.44;5055031;28;20033;-40
2021/11/22 06:04:46;;;;;;;877.83;820.08;;;;;;;18.70;48.00;102083.03;5054994;28;20095;-40
2021/11/22 06:07:12;;;;;;;883.83;825.47;;;;;;;18.69;48.14;102078.66;5053497;28;20041;-40
2021/11/22 06:09:39;;;;;;;926.88;865.40;;;;;;;18.70;48.34;102083.03;5051899;28;20028;-40
2021/11/22 06:12:05;;;;;;;917.47;855.22;;;;;;;18.69;48.13;102086.66;5054031;28;20033;-40
2021/11/22 06:14:31;;;;;;;910.92;849.17;;;;;;;18.66;48.15;102081.56;5051878;28;20020;-40
2021/11/22 06:16:58;;;;;;;928.30;866.97;;;;;;;18.66;48.10;102098.38;5053236;28;20112;-39
2021/11/22 06:19:24;;;;;;;907.75;846.83;;;;;;;18.64;48.30;102096.81;5054884;28;20035;-40
2021/11/22 06:21:50;;;;;;;896.15;837.20;;;;;;;18.51;48.13;102073.75;5054294;28;20479;-40
2021/11/22 06:24:17;;;;;;;937.50;873.55;;;;;;;18.60;48.11;102091.69;5052739;28;20033;-39
2021/11/22 06:26:44;;;;;;;918.30;858.22;;;;;;;18.60;48.45;102091.69;5035573;28;20508;-40
2021/11/22 06:29:17;;;;;;;919.10;857.33;;;;;;;18.63;48.17;102098.59;5038186;28;20037;-40
2021/11/22 06:31:44;;;;;;;914.63;853.10;;;;;;;18.64;48.41;102094.97;5053887;28;20074;-39
2021/11/22 06:34:10;;;;;;;902.05;841.72;;;;;;;18.55;48.14;102083.19;5040683;28;20038;-40
2021/11/22 06:36:37;;;;;;;925.22;863.28;;;;;;;18.64;48.25;102104.78;5068312;28;20108;-39
2021/11/22 06:39:03;;;;;;;919.50;857.22;;;;;;;18.61;48.38;102096.03;5052284;28;20021;-40
2021/11/22 06:41:29;;;;;;;896.08;836.03;;;;;;;18.60;48.17;102093.47;5053904;28;20024;-39
2021/11/22 06:43:55;;;;;;;935.72;871.15;;;;;;;18.59;48.25;102092.63;5053731;28;20025;-40
2021/11/22 06:46:22;;;;;;;909.83;850.15;;;;;;;18.58;48.22;102098.94;5054709;28;20347;-40
2021/11/22 06:48:48;;;;;;;914.05;853.17;;;;;;;18.56;48.18;102092.84;5054608;28;20021;-40
2021/11/22 06:51:14;;;;;;;918.38;856.10;;;;;;;18.55;48.50;102093.84;5046773;28;20063;-39
2021/11/22 06:53:41;;;;;;;932.67;870.95;;;;;;;18.56;48.34;102084.88;5052140;28;20029;-40
2021/11/22 06:56:07;;;;;;;897.38;837.92;;;;;;;18.55;48.28;102093.84;5048740;28;20108;-40
2021/11/22 06:58:33;;;;;;;905.05;844.95;;;;;;;18.53;48.37;102087.78;5050677;28;20028;-40
2021/11/22 07:00:59;;;;;;;918.95;856.50;;;;;;;18.58;48.06;102084.75;5053121;28;20032;-39
2021/11/22 07:03:27;;;;;;;890.33;831.67;;;;;;;18.58;48.14;102085.63;5054049;28;20401;-39
2021/11/22 07:05:53;;;;;;;919.05;856.90;;;;;;;18.56;48.01;102084.03;5054114;28;20084;-39
2021/11/22 07:08:20;;;;;;;891.85;833.33;;;;;;;18.51;48.44;102081.72;5053436;28;20044;-40
2021/11/22 07:10:46;;;;;;;913.13;852.28;;;;;;;18.49;48.40;102080.13;5050909;28;20037;-40
2021/11/22 07:13:12;;;;;;;934.60;871.25;;;;;;;18.48;48.35;102083.75;5053987;28;20359;-40
2021/11/22 07:15:38;;;;;;;933.05;869.55;;;;;;;18.47;48.06;102080.22;5053561;28;20343;-40
2021/11/22 07:18:05;;;;;;;893.40;835.45;;;;;;;18.45;48.29;102070.66;5053861;28;20454;-40
2021/11/22 07:20:31;;;;;;;916.17;854.40;;;;;;;18.41;48.44;102072.69;5050010;28;20363;-40
2021/11/22 07:22:58;;;;;;;919.10;857.25;;;;;;;18.42;48.48;102074.38;5052084;28;20431;-39
2021/11/22 07:25:24;;;;;;;879.53;821.38;;;;;;;18.42;48.30;102071.72;5055473;28;20024;-39
2021/11/22 07:27:51;;;;;;;903.05;842.83;;;;;;;18.37;48.26;102064.09;5056359;28;20043;-40
2021/11/22 07:30:21;;;;;;;873.08;815.53;;;;;;;18.44;48.31;102072.50;5055372;28;20511;-40
2021/11/22 07:32:54;;;;;;;898.70;838.65;;;;;;;18.43;48.04;102068.94;5065584;28;20028;-39
2021/11/22 07:35:21;;;;;;;915.92;854.90;;;;;;;18.42;47.95;102077.91;5057392;28;20332;-40
2021/11/22 07:37:48;;;;;;;912.40;851.58;;;;;;;18.38;48.21;102067.59;5054765;28;20513;-40
2021/11/22 07:40:16;;;;;;;888.08;828.58;;;;;;;18.35;48.58;102065.13;5057948;28;20111;-40
2021/11/22 07:42:42;;;;;;;901.80;842.65;;;;;;;18.18;48.42;102045.94;5052178;28;20442;-40
2021/11/22 07:45:08;;;;;;;927.63;864.55;;;;;;;18.29;48.51;102060.28;5072077;28;20098;-39
2021/11/22 07:47:34;;;;;;;930.08;866.70;;;;;;;18.32;48.41;102058.25;5072454;28;20029;-40
2021/11/22 07:50:01;;;;;;;895.10;835.85;;;;;;;18.31;48.59;102053.88;5057613;28;20025;-39
2021/11/22 07:52:27;;;;;;;898.42;838.78;;;;;;;18.21;48.54;102043.06;5051763;28;20025;-40
2021/11/22 07:54:53;;;;;;;897.42;837.40;;;;;;;18.29;48.44;102049.63;5054509;28;20032;-39
2021/11/22 07:57:19;;;;;;;890.42;832.72;;;;;;;18.27;48.54;102046.25;5048759;28;20143;-40
2021/11/22 07:59:45;;;;;;;885.03;826.45;;;;;;;18.14;48.11;102017.88;5042808;28;20033;-40
2021/11/22 08:02:12;;;;;;;861.35;805.25;;;;;;;18.32;48.22;102054.75;5055885;28;20332;-40
2021/11/22 08:04:38;;;;;;;903.63;844.42;;;;;;;18.30;48.21;102041.56;5056603;28;20358;-40
2021/11/22 08:07:13;;;;;;;902.35;842.35;;;;;;;18.26;48.49;102036.56;5056101;28;20032;-39
2021/11/22 08:09:44;;;;;;;891.72;833.00;;;;;;;18.24;48.47;102034.88;5053918;28;20032;-39
2021/11/22 08:14:40;;;;;;;930.97;868.85;;;;;;;18.18;48.43;102034.44;5049220;28;20028;-40
2021/11/22 08:17:07;;;;;;;877.67;820.42;;;;;;;18.18;48.17;102029.97;5050722;28;20098;-39
2021/11/22 08:19:33;;;;;;;907.60;847.45;;;;;;;18.15;48.29;102024.88;5057006;28;20024;-40
2021/11/22 08:22:00;;;;;;;905.15;844.90;;;;;;;18.16;48.58;102023.09;5055831;28;20036;-40
2021/11/22 08:24:26;;;;;;;906.55;847.38;;;;;;;18.11;48.57;102020.75;5055853;28;20025;-39
2021/11/22 08:26:55;;;;;;;833.65;780.33;;;;;;;18.14;48.46;102015.22;5056337;28;20053;-39
2021/11/22 08:29:22;;;;;;;893.35;834.53;;;;;;;18.18;48.32;102016.69;5056923;28;20064;-39
2021/11/22 08:31:48;;;;;;;890.42;833.00;;;;;;;18.18;48.29;102016.69;5048116;28;20020;-39
2021/11/22 08:34:14;;;;;;;879.58;821.17;;;;;;;18.19;48.04;102006.88;5056525;28;20037;-39
2021/11/22 08:36:41;;;;;;;888.67;829.83;;;;;;;18.16;48.56;102018.59;5056954;28;20112;-39
2021/11/22 08:39:07;;;;;;;882.42;824.30;;;;;;;18.12;48.48;102013.59;5056582;28;20047;-39
2021/11/22 08:41:33;;;;;;;916.15;855.67;;;;;;;18.09;48.32;102013.84;5056671;28;20036;-40
2021/11/22 08:43:59;;;;;;;897.80;838.28;;;;;;;18.05;48.27;102010.56;5056635;28;20366;-40
2021/11/22 08:46:25;;;;;;;885.95;827.65;;;;;;;18.05;48.30;102006.09;5054486;28;20126;-39
2021/11/22 08:48:52;;;;;;;867.08;811.40;;;;;;;18.02;48.47;102010.78;5072869;28;20058;-40
2021/11/22 08:51:18;;;;;;;883.95;825.72;;;;;;;18.00;48.48;102005.56;5061196;28;20070;-40
2021/11/22 08:53:44;;;;;;;891.35;833.17;;;;;;;18.02;48.23;102008.09;5056187;28;20028;-39
2021/11/22 08:56:11;;;;;;;872.80;815.95;;;;;;;18.02;48.22;102000.13;5056298;28;20031;-39
2021/11/22 08:58:37;;;;;;;855.53;799.67;;;;;;;18.07;48.31;101997.13;5055571;28;20036;-40
2021/11/22 09:01:04;;;;;;;866.13;810.08;;;;;;;18.08;48.19;101999.69;5055117;28;20021;-40
2021/11/22 09:03:30;;;;;;;855.47;800.67;;;;;;;18.08;48.11;101999.69;5055130;28;20087;-40
2021/11/22 09:05:56;;;;;;;880.90;823.08;;;;;;;18.02;48.26;102000.97;5056119;28;20025;-39
2021/11/22 09:08:22;;;;;;;893.45;835.13;;;;;;;17.99;48.27;101992.38;5054805;28;20031;-39
2021/11/22 09:10:49;;;;;;;842.45;788.20;;;;;;;17.97;48.30;101995.13;5055294;28;20112;-39
2021/11/22 09:13:17;;;;;;;896.70;837.22;;;;;;;17.93;48.48;101993.66;5055867;28;20025;-40
2021/11/22 09:15:43;;;;;;;903.10;843.15;;;;;;;17.95;48.18;101994.41;5055713;28;20494;-40
2021/11/22 09:18:10;;;;;;;886.97;828.20;;;;;;;17.93;48.34;101982.19;5054951;28;20036;-40
2021/11/22 09:20:36;;;;;;;869.13;812.28;;;;;;;17.90;48.42;101995.69;5054452;28;20037;-39
2021/11/22 09:23:04;;;;;;;875.30;819.17;;;;;;;17.92;48.19;101993.78;5055621;28;20021;-40
2021/11/22 09:25:30;;;;;;;886.13;828.05;;;;;;;17.90;48.35;101993.88;5055556;28;20029;-40
2021/11/22 09:27:57;;;;;;;882.40;825.40;;;;;;;17.93;48.11;101995.47;5055082;28;20032;-40
2021/11/22 09:30:23;;;;;;;862.70;806.80;;;;;;;17.81;48.21;101971.41;5055579;28;20033;-40
2021/11/22 09:32:50;;;;;;;871.75;815.35;;;;;;;17.96;47.96;101990.78;5055157;28;20485;-40
2021/11/22 09:35:16;;;;;;;887.70;829.08;;;;;;;17.93;48.02;101983.03;5054996;28;20029;-40
2021/11/22 09:37:42;;;;;;;872.75;816.72;;;;;;;17.90;48.14;101985.06;5055617;28;20075;-39
2021/11/22 09:40:09;;;;;;;902.15;843.40;;;;;;;17.86;48.05;101985.25;5055634;28;20031;-40
2021/11/22 09:42:35;;;;;;;863.20;808.20;;;;;;;17.86;48.38;101979.09;5055194;28;20036;-40
2021/11/22 09:45:02;;;;;;;883.17;824.97;;;;;;;17.83;48.39;101977.47;5055059;28;20067;-39
2021/11/22 09:47:28;;;;;;;879.50;822.40;;;;;;;17.82;48.14;101974.94;5055158;28;20031;-39
2021/11/22 09:49:55;;;;;;;864.17;808.60;;;;;;;17.80;48.24;101976.84;5055340;28;20032;-39
2021/11/22 09:52:22;;;;;;;863.05;807.80;;;;;;;17.77;48.12;101975.25;5055339;28;20086;-39
2021/11/22 09:54:48;;;;;;;906.22;845.25;;;;;;;17.77;48.16;101967.28;5054464;28;20532;-40
2021/11/22 09:57:14;;;;;;;837.85;784.75;;;;;;;17.83;48.12;101984.59;5055154;28;20043;-40
2021/11/22 09:59:42;;;;;;;856.63;802.42;;;;;;;17.74;47.88;101958.69;5055328;28;20020;-40
2021/11/22 10:02:08;;;;;;;840.17;786.40;;;;;;;17.83;48.08;101979.28;5054978;28;20031;-39
2021/11/22 10:04:34;;;;;;;863.50;807.92;;;;;;;17.81;47.77;101978.56;5054995;28;20103;-40
2021/11/22 10:07:03;;;;;;;844.70;791.45;;;;;;;17.76;48.10;101972.72;5054974;28;20021;-39
2021/11/22 10:09:32;;;;;;;868.03;812.67;;;;;;;17.72;48.29;101974.72;5054590;28;20089;-39
2021/11/22 10:12:10;;;;;;;863.67;808.47;;;;;;;17.74;47.89;101977.28;5053364;28;20103;-40
2021/11/22 10:14:54;;;;;;;846.88;793.38;;;;;;;17.70;48.16;101979.31;5070208;28;20035;-40
2021/11/22 10:17:34;;;;;;;868.42;813.85;;;;;;;17.69;48.08;101974.94;5054750;28;20094;-39
2021/11/22 10:20:19;;;;;;;856.08;801.83;;;;;;;17.72;47.98;101980.03;5054857;28;20051;-40
2021/11/22 10:23:04;;;;;;;857.78;803.13;;;;;;;17.66;48.08;101977.84;5053850;28;20029;-40
2021/11/22 10:25:37;;;;;;;842.70;789.08;;;;;;;17.67;48.06;101976.84;5054445;28;20352;-39
2021/11/22 10:28:16;;;;;;;842.22;790.03;;;;;;;17.68;48.03;101984.72;5054584;28;20029;-40
2021/11/22 10:30:47;;;;;;;840.22;787.78;;;;;;;17.57;47.89;101957.19;5053641;28;20027;-40
2021/11/22 10:33:16;;;;;;;864.25;808.88;;;;;;;17.69;47.88;101982.91;5054302;28;20429;-39
2021/11/22 10:35:42;;;;;;;868.45;813.35;;;;;;;17.70;47.92;101979.31;5054970;28;20104;-40
2021/11/22 10:38:12;;;;;;;854.65;800.35;;;;;;;17.63;48.00;101981.53;5054436;28;20397;-39
2021/11/22 10:40:39;;;;;;;864.90;809.17;;;;;;;17.63;47.82;101980.69;5070393;28;20056;-39
2021/11/22 10:43:06;;;;;;;890.22;832.13;;;;;;;17.60;48.06;101979.09;5054629;28;20358;-40
2021/11/22 10:45:40;;;;;;;877.17;820.55;;;;;;;17.58;47.96;101980.16;5054521;28;20102;-39
2021/11/22 10:48:17;;;;;;;852.33;798.20;;;;;;;17.53;47.90;101983.13;5055215;28;20442;-40
2021/11/22 10:50:50;;;;;;;895.15;837.53;;;;;;;17.56;48.05;101979.44;5073998;28;20028;-39
2021/11/22 10:53:33;;;;;;;845.45;791.80;;;;;;;17.55;47.90;101977.72;5050745;28;20129;-40